Pullman, Washington
Current Conditions -  °F | °C
As of 7:53 AM on Monday 26 Jan 2015 (Local Time) from KPUW Reporting Station
Clear Clear  
Wind Chill: 36°   Ceiling: Unl
Heat Index: 44°   Visibility: 10mi
Dew Point: 35°   Wind: 17mph
Humidity: 71%   Direction: 90°E
Pressure: 30.09"   Gusts: NA
Location:  46.73°N, 117.18°W
Report Text: KPUW 261553Z AUTO 09015KT 10SM CLR 07/02 A3009 RMK AO2 SLP197 T00670017
Loading
Personal Weather Stations






























Interactive Weather Map New forecast layout! Learn more

10-Day Weather Forecast

Advertisements
Track Severe Weather on mobile